createdAt,value
2022-11-11T00:00:35.706Z,100.00
2022-11-11T00:01:08.349Z,100.00
2022-11-11T00:03:34.799Z,100.00
2022-11-11T00:05:35.740Z,100.00
2022-11-11T00:06:06.770Z,100.00
2022-11-11T00:08:33.130Z,100.00
2022-11-11T00:10:35.668Z,100.00
2022-11-11T00:11:04.869Z,100.00
2022-11-11T00:13:31.874Z,100.00
2022-11-11T00:15:35.703Z,100.00
2022-11-11T00:16:08.143Z,100.00
2022-11-11T00:18:53.783Z,100.00
2022-11-11T00:20:37.487Z,100.00
2022-11-11T00:21:46.768Z,100.00
2022-11-11T00:24:38.742Z,100.00
2022-11-11T00:25:35.784Z,100.00
2022-11-11T00:27:05.992Z,100.00
2022-11-11T00:29:32.654Z,100.00
2022-11-11T00:30:35.724Z,100.00
2022-11-11T00:32:18.243Z,100.00
2022-11-11T00:35:04.737Z,100.00
2022-11-11T00:35:35.763Z,100.00
2022-11-11T00:37:32.843Z,100.00
2022-11-11T00:39:59.501Z,100.00
2022-11-11T00:40:35.718Z,100.00
2022-11-11T00:42:26.448Z,100.00
2022-11-11T00:44:53.099Z,100.00
2022-11-11T00:45:35.717Z,100.00
2022-11-11T00:47:38.108Z,100.00
2022-11-11T00:50:25.850Z,100.00
2022-11-11T00:50:35.782Z,100.00
2022-11-11T00:52:52.178Z,100.00
2022-11-11T00:55:18.574Z,100.00
2022-11-11T00:55:35.691Z,100.00
2022-11-11T00:57:44.950Z,100.00
2022-11-11T01:00:12.094Z,100.00
2022-11-11T01:00:35.811Z,100.00
2022-11-11T01:02:38.477Z,100.00
2022-11-11T01:05:05.140Z,100.00
2022-11-11T01:05:35.841Z,100.00
2022-11-11T01:07:31.923Z,100.00
2022-11-11T01:09:58.677Z,100.00
2022-11-11T01:10:35.798Z,100.00
2022-11-11T01:12:25.140Z,100.00
2022-11-11T01:14:51.503Z,100.00
2022-11-11T01:15:35.802Z,100.00
2022-11-11T01:17:17.974Z,100.00
2022-11-11T01:19:44.381Z,100.00
2022-11-11T01:20:35.693Z,100.00
2022-11-11T01:22:11.098Z,100.00
2022-11-11T01:24:38.500Z,100.00
2022-11-11T01:25:35.711Z,100.00
2022-11-11T01:27:05.125Z,100.00
2022-11-11T01:29:31.571Z,100.00
2022-11-11T01:30:35.806Z,100.00
2022-11-11T01:31:58.088Z,100.00
2022-11-11T01:34:24.583Z,100.00
2022-11-11T01:35:35.699Z,100.00
2022-11-11T01:36:51.204Z,100.00
2022-11-11T01:39:17.538Z,100.00
2022-11-11T01:40:35.825Z,100.00
2022-11-11T01:41:44.219Z,100.00
2022-11-11T01:44:10.649Z,100.00
2022-11-11T01:45:35.741Z,100.00
2022-11-11T01:46:53.794Z,100.00
2022-11-11T01:49:29.354Z,100.00
2022-11-11T01:50:35.687Z,100.00
2022-11-11T01:52:09.899Z,100.00
2022-11-11T01:54:40.889Z,100.00
2022-11-11T01:55:35.739Z,100.00
2022-11-11T01:57:36.784Z,100.00
2022-11-11T02:00:07.935Z,100.00
2022-11-11T02:00:35.841Z,100.00
2022-11-11T02:02:40.776Z,100.00
2022-11-11T02:05:29.709Z,100.00
2022-11-11T02:05:36.005Z,100.00
2022-11-11T02:07:59.723Z,100.00
2022-11-11T02:10:28.779Z,100.00
2022-11-11T02:10:35.733Z,100.00
2022-11-11T02:13:14.093Z,100.00
2022-11-11T02:15:35.825Z,100.00
2022-11-11T02:15:41.336Z,100.00
2022-11-11T02:18:07.938Z,100.00
2022-11-11T02:20:39.985Z,100.00
2022-11-11T02:20:40.227Z,100.00
2022-11-11T02:23:14.915Z,100.00
2022-11-11T02:25:35.865Z,100.00
2022-11-11T02:25:46.385Z,100.00
2022-11-11T02:28:14.157Z,100.00
2022-11-11T02:30:35.818Z,100.00
2022-11-11T02:30:41.002Z,100.00
2022-11-11T02:33:07.594Z,100.00
2022-11-11T02:35:37.766Z,100.00
2022-11-11T02:35:38.067Z,100.00
2022-11-11T02:38:09.227Z,100.00
2022-11-11T02:41:03.383Z,100.00
2022-11-11T02:41:03.831Z,100.00
2022-11-11T02:43:32.491Z,100.00
2022-11-11T02:45:35.746Z,100.00
2022-11-11T02:45:59.656Z,100.00
2022-11-11T02:48:27.271Z,100.00
2022-11-11T02:50:35.769Z,100.00
2022-11-11T02:50:54.521Z,100.00
2022-11-11T02:53:22.560Z,100.00
2022-11-11T02:55:35.889Z,100.00
2022-11-11T02:55:49.468Z,100.00
2022-11-11T02:58:16.889Z,100.00
2022-11-11T03:00:35.731Z,100.00
2022-11-11T03:00:43.635Z,100.00
2022-11-11T03:03:51.503Z,100.00
2022-11-11T03:05:35.866Z,100.00
2022-11-11T03:06:17.988Z,100.00
2022-11-11T03:08:44.656Z,100.00
2022-11-11T03:10:35.817Z,100.00
2022-11-11T03:11:11.044Z,100.00
2022-11-11T03:13:37.527Z,100.00
2022-11-11T03:15:35.744Z,100.00
2022-11-11T03:16:04.312Z,100.00
2022-11-11T03:18:30.743Z,100.00
2022-11-11T03:20:35.704Z,100.00
2022-11-11T03:21:53.278Z,100.00
2022-11-11T03:23:52.239Z,100.00
2022-11-11T03:25:35.714Z,100.00
2022-11-11T03:26:19.407Z,100.00
2022-11-11T03:28:45.839Z,100.00
2022-11-11T03:30:35.804Z,100.00
2022-11-11T03:31:12.433Z,100.00
2022-11-11T03:33:38.963Z,100.00
2022-11-11T03:35:35.813Z,100.00
2022-11-11T03:36:05.723Z,100.00
2022-11-11T03:38:32.112Z,100.00
2022-11-11T03:40:35.718Z,100.00
2022-11-11T03:40:59.025Z,100.00
2022-11-11T03:43:31.029Z,100.00
2022-11-11T03:45:35.722Z,100.00
2022-11-11T03:46:00.264Z,100.00
2022-11-11T03:48:28.592Z,100.00
2022-11-11T03:50:35.766Z,100.00
2022-11-11T03:50:55.171Z,100.00
2022-11-11T03:53:23.059Z,100.00
2022-11-11T03:55:35.719Z,100.00
2022-11-11T03:55:50.889Z,100.00
2022-11-11T03:58:18.453Z,100.00
2022-11-11T04:00:35.751Z,100.00
2022-11-11T04:00:45.379Z,100.00
2022-11-11T04:03:33.230Z,100.00
2022-11-11T04:05:35.753Z,100.00
2022-11-11T04:06:18.906Z,100.00
2022-11-11T04:09:04.387Z,100.00
2022-11-11T04:10:35.741Z,100.00
2022-11-11T04:11:38.092Z,100.00
2022-11-11T04:14:28.664Z,100.00
2022-11-11T04:15:35.731Z,100.00
2022-11-11T04:16:55.451Z,100.00
2022-11-11T04:19:40.658Z,100.00
2022-11-11T04:20:35.737Z,100.00
2022-11-11T04:22:07.561Z,100.00
2022-11-11T04:24:52.704Z,100.00
2022-11-11T04:25:41.416Z,100.00
2022-11-11T04:27:19.967Z,100.00
2022-11-11T04:29:51.705Z,100.00
2022-11-11T04:30:35.719Z,100.00
2022-11-11T04:32:38.303Z,100.00
2022-11-11T04:35:10.595Z,100.00
2022-11-11T04:35:35.776Z,100.00
2022-11-11T04:37:46.343Z,100.00
2022-11-11T04:40:32.224Z,100.00
2022-11-11T04:40:35.830Z,100.00
2022-11-11T04:42:58.837Z,100.00
2022-11-11T04:45:27.949Z,100.00
2022-11-11T04:45:35.746Z,100.00
2022-11-11T04:48:00.333Z,100.00
2022-11-11T04:50:29.452Z,100.00
2022-11-11T04:50:35.741Z,100.00
2022-11-11T04:52:56.212Z,100.00
2022-11-11T04:55:41.699Z,100.00
2022-11-11T04:55:41.841Z,100.00
2022-11-11T04:58:08.410Z,100.00
2022-11-11T05:00:35.342Z,100.00
2022-11-11T05:00:35.737Z,100.00
2022-11-11T05:03:17.228Z,100.00
2022-11-11T05:05:35.888Z,100.00
2022-11-11T05:06:10.230Z,100.00
2022-11-11T05:08:57.232Z,100.00
2022-11-11T05:10:35.786Z,100.00
2022-11-11T05:11:24.799Z,100.00
2022-11-11T05:14:11.461Z,100.00
2022-11-11T05:15:35.745Z,100.00
2022-11-11T05:17:01.327Z,100.00
2022-11-11T05:19:46.566Z,100.00
2022-11-11T05:20:38.874Z,100.00
2022-11-11T05:22:23.722Z,100.00
2022-11-11T05:25:08.818Z,100.00
2022-11-11T05:25:35.770Z,100.00
2022-11-11T05:27:35.666Z,100.00
2022-11-11T05:30:02.277Z,100.00
2022-11-11T05:30:35.776Z,100.00
2022-11-11T05:32:28.682Z,100.00
2022-11-11T05:34:55.152Z,100.00
2022-11-11T05:35:35.757Z,100.00
2022-11-11T05:37:21.651Z,100.00
2022-11-11T05:39:48.084Z,100.00
2022-11-11T05:40:35.744Z,100.00
2022-11-11T05:42:15.211Z,100.00
2022-11-11T05:44:41.776Z,100.00
2022-11-11T05:45:35.760Z,100.00
2022-11-11T05:47:08.553Z,100.00
2022-11-11T05:49:35.008Z,100.00
2022-11-11T05:50:35.821Z,100.00
2022-11-11T05:52:01.435Z,100.00
2022-11-11T05:54:27.968Z,100.00
2022-11-11T05:55:35.778Z,100.00
2022-11-11T05:56:54.410Z,100.00
2022-11-11T05:59:20.979Z,100.00
2022-11-11T06:00:35.752Z,100.00
2022-11-11T06:01:48.178Z,100.00
2022-11-11T06:04:18.142Z,100.00
2022-11-11T06:05:35.791Z,100.00
2022-11-11T06:06:45.383Z,100.00
2022-11-11T06:09:12.051Z,100.00
2022-11-11T06:10:35.746Z,100.00
2022-11-11T06:11:38.459Z,100.00
2022-11-11T06:14:05.664Z,100.00
2022-11-11T06:15:35.764Z,100.00
2022-11-11T06:16:32.189Z,100.00
2022-11-11T06:18:59.952Z,100.00
2022-11-11T06:20:35.759Z,100.00
2022-11-11T06:21:27.379Z,100.00
2022-11-11T06:23:53.722Z,100.00
2022-11-11T06:25:35.768Z,100.00
2022-11-11T06:26:20.064Z,100.00
2022-11-11T06:28:49.441Z,100.00
2022-11-11T06:30:48.273Z,100.00
2022-11-11T06:31:18.455Z,100.00
2022-11-11T06:33:45.090Z,100.00
2022-11-11T06:35:35.771Z,100.00
2022-11-11T06:36:13.529Z,100.00
2022-11-11T06:38:43.256Z,100.00
2022-11-11T06:40:35.748Z,100.00
2022-11-11T06:41:13.964Z,100.00
2022-11-11T06:43:41.293Z,100.00
2022-11-11T06:45:35.776Z,100.00
2022-11-11T06:46:18.267Z,100.00
2022-11-11T06:48:44.912Z,100.00
2022-11-11T06:50:35.776Z,100.00
2022-11-11T06:51:11.997Z,100.00
2022-11-11T06:53:38.328Z,100.00
2022-11-11T06:55:35.783Z,100.00
2022-11-11T06:56:04.909Z,100.00
2022-11-11T06:58:31.427Z,100.00
2022-11-11T07:00:35.862Z,100.00
2022-11-11T07:00:57.883Z,100.00
2022-11-11T07:03:25.867Z,100.00
2022-11-11T07:05:35.955Z,100.00
2022-11-11T07:05:58.975Z,100.00
2022-11-11T07:08:26.526Z,100.00
2022-11-11T07:10:35.757Z,100.00
2022-11-11T07:10:53.392Z,100.00
2022-11-11T07:13:19.732Z,100.00
2022-11-11T07:15:35.783Z,100.00
2022-11-11T07:15:46.803Z,100.00
2022-11-11T07:18:13.188Z,100.00
2022-11-11T07:20:35.767Z,100.00
2022-11-11T07:20:40.284Z,100.00
2022-11-11T07:23:08.927Z,100.00
2022-11-11T07:25:35.408Z,100.00
2022-11-11T07:25:35.774Z,100.00
2022-11-11T07:28:02.205Z,100.00
2022-11-11T07:30:28.597Z,100.00
2022-11-11T07:30:35.773Z,100.00
2022-11-11T07:32:54.954Z,100.00
2022-11-11T07:35:22.288Z,100.00
2022-11-11T07:35:35.777Z,100.00
2022-11-11T07:37:49.454Z,100.00
2022-11-11T07:40:17.665Z,100.00
2022-11-11T07:40:35.792Z,100.00
2022-11-11T07:42:44.070Z,100.00
2022-11-11T07:45:12.463Z,100.00
2022-11-11T07:45:35.766Z,100.00
2022-11-11T07:47:38.806Z,100.00
2022-11-11T07:50:08.066Z,100.00
2022-11-11T07:50:35.768Z,100.00
2022-11-11T07:52:36.992Z,100.00
2022-11-11T07:55:08.220Z,100.00
2022-11-11T07:55:35.773Z,100.00
2022-11-11T07:57:34.711Z,100.00
2022-11-11T08:00:01.248Z,100.00
2022-11-11T08:00:35.824Z,100.00
2022-11-11T08:02:27.671Z,100.00
2022-11-11T08:04:55.998Z,100.00
2022-11-11T08:05:35.955Z,100.00
2022-11-11T08:07:24.171Z,100.00
2022-11-11T08:09:51.226Z,100.00
2022-11-11T08:10:35.771Z,100.00
2022-11-11T08:12:36.507Z,100.00
2022-11-11T08:15:06.578Z,100.00
2022-11-11T08:15:35.832Z,100.00
2022-11-11T08:17:38.207Z,100.00
2022-11-11T08:20:07.036Z,100.00
2022-11-11T08:20:39.328Z,100.00
2022-11-11T08:22:41.603Z,100.00
2022-11-11T08:25:11.471Z,100.00
2022-11-11T08:25:35.783Z,100.00
2022-11-11T08:27:38.192Z,100.00
2022-11-11T08:30:07.087Z,100.00
2022-11-11T08:30:35.793Z,100.00
2022-11-11T08:32:33.497Z,100.00
2022-11-11T08:35:00.032Z,100.00
2022-11-11T08:35:35.781Z,100.00
2022-11-11T08:37:26.442Z,100.00
2022-11-11T08:39:52.783Z,100.00
2022-11-11T08:40:35.795Z,100.00
2022-11-11T08:42:19.407Z,100.00
2022-11-11T08:44:46.770Z,100.00
2022-11-11T08:45:35.781Z,100.00
2022-11-11T08:47:13.123Z,100.00
2022-11-11T08:49:39.509Z,100.00
2022-11-11T08:50:35.767Z,100.00
2022-11-11T08:52:05.855Z,100.00
2022-11-11T08:54:33.295Z,100.00
2022-11-11T08:55:35.799Z,100.00
2022-11-11T08:56:59.627Z,100.00
2022-11-11T08:59:26.014Z,100.00
2022-11-11T09:00:35.776Z,100.00
2022-11-11T09:01:52.404Z,100.00
2022-11-11T09:05:35.811Z,100.00
2022-11-11T09:07:09.366Z,100.00
2022-11-11T09:09:35.849Z,100.00
2022-11-11T09:10:35.781Z,100.00
2022-11-11T09:12:02.503Z,100.00
2022-11-11T09:14:28.937Z,100.00
2022-11-11T09:15:35.869Z,100.00
2022-11-11T09:16:55.279Z,100.00
2022-11-11T09:19:22.143Z,100.00
2022-11-11T09:20:35.778Z,100.00
2022-11-11T09:21:50.313Z,100.00
2022-11-11T09:24:16.667Z,100.00
2022-11-11T09:25:35.800Z,100.00
2022-11-11T09:26:43.033Z,100.00
2022-11-11T09:29:09.486Z,100.00
2022-11-11T09:29:27.783Z,100.00
2022-11-11T09:31:44.431Z,100.00
2022-11-11T09:34:12.374Z,100.00
2022-11-11T09:34:27.752Z,100.00
2022-11-11T09:36:38.963Z,100.00
2022-11-11T09:39:05.453Z,100.00
2022-11-11T09:39:27.715Z,100.00
2022-11-11T09:42:06.442Z,100.00
2022-11-11T09:44:27.683Z,100.00
2022-11-11T09:45:21.330Z,100.00
2022-11-11T09:48:03.079Z,100.00
2022-11-11T09:49:27.715Z,100.00
2022-11-11T09:50:37.930Z,100.00
2022-11-11T09:53:17.914Z,100.00
2022-11-11T09:54:27.698Z,100.00
2022-11-11T09:56:00.358Z,100.00
2022-11-11T09:58:35.897Z,100.00
2022-11-11T09:59:27.705Z,100.00
2022-11-11T10:01:16.945Z,100.00
2022-11-11T10:03:48.869Z,100.00
2022-11-11T10:04:27.700Z,100.00
2022-11-11T10:06:28.669Z,100.00
2022-11-11T10:06:51.512Z,100.00
2022-11-11T10:09:05.097Z,100.00
2022-11-11T10:11:59.300Z,100.00
2022-11-11T10:11:59.429Z,100.00
2022-11-11T10:14:33.994Z,100.00
2022-11-11T10:16:51.348Z,100.00
2022-11-11T10:17:26.766Z,100.00
2022-11-11T10:20:14.986Z,100.00
2022-11-11T10:22:11.788Z,100.00
2022-11-11T10:22:43.521Z,100.00
2022-11-11T10:25:12.592Z,100.00
2022-11-11T10:26:51.395Z,100.00
2022-11-11T10:27:45.602Z,100.00
2022-11-11T10:30:21.298Z,100.00
2022-11-11T10:31:51.380Z,100.00
2022-11-11T10:33:01.181Z,100.00
2022-11-11T10:35:30.171Z,100.00
2022-11-11T10:36:51.379Z,100.00
2022-11-11T10:38:23.177Z,100.00
2022-11-11T10:40:53.947Z,100.00
2022-11-11T10:41:51.379Z,100.00
2022-11-11T10:43:27.265Z,100.00
2022-11-11T10:46:06.840Z,100.00
2022-11-11T10:46:51.364Z,100.00
2022-11-11T10:49:12.525Z,100.00
2022-11-11T10:51:49.483Z,100.00
2022-11-11T10:51:51.361Z,100.00
2022-11-11T10:54:33.547Z,100.00
2022-11-11T10:56:51.378Z,100.00
2022-11-11T10:57:10.047Z,100.00
2022-11-11T10:59:46.817Z,100.00
2022-11-11T11:01:51.439Z,100.00
2022-11-11T11:02:26.638Z,100.00
2022-11-11T11:04:58.633Z,100.00
2022-11-11T11:06:51.406Z,100.00
2022-11-11T11:07:34.279Z,100.00
2022-11-11T11:10:12.575Z,100.00
2022-11-11T11:11:51.370Z,100.00
2022-11-11T11:12:45.263Z,100.00
2022-11-11T11:15:14.976Z,100.00
2022-11-11T11:16:51.372Z,23
2022-11-11T11:17:51.687Z,99.33
2022-11-11T11:20:20.753Z,97.81
2022-11-11T11:21:51.372Z,97.81
2022-11-11T11:22:55.992Z,98.41
2022-11-11T11:25:23.579Z,96.58
2022-11-11T11:26:51.378Z,96.58
2022-11-11T11:27:51.829Z,97.77
2022-11-11T11:30:23.758Z,97.59
2022-11-11T11:31:51.384Z,97.59
2022-11-11T11:33:00.617Z,97.18
2022-11-11T11:35:36.007Z,96.98
2022-11-11T11:36:51.375Z,96.98
2022-11-11T11:38:03.122Z,96.79
2022-11-11T11:40:58.337Z,96.79
2022-11-11T11:41:51.370Z,96.79
2022-11-11T11:43:26.169Z,97.13
2022-11-11T11:46:01.496Z,97.75
2022-11-11T11:46:51.383Z,97.75
2022-11-11T11:48:53.384Z,96.50
2022-11-11T11:51:35.207Z,95.20
2022-11-11T11:51:51.366Z,95.20
2022-11-11T11:54:54.375Z,95.02
2022-11-11T11:56:51.377Z,95.02
2022-11-11T11:57:52.093Z,94.27
2022-11-11T12:00:21.520Z,92.13
2022-11-11T12:01:51.380Z,92.13
2022-11-11T12:02:50.517Z,92.10
2022-11-11T12:05:22.402Z,90.50
2022-11-11T12:06:51.461Z,90.50
2022-11-11T12:08:11.714Z,91.41
2022-11-11T12:10:46.848Z,90.70
2022-11-11T12:11:51.434Z,90.70
2022-11-11T12:13:43.899Z,89.03
2022-11-11T12:16:31.156Z,88.45
2022-11-11T12:16:51.367Z,88.45
2022-11-11T12:19:32.933Z,89.04
2022-11-11T12:21:51.380Z,89.04
2022-11-11T12:22:27.023Z,88.05
2022-11-11T12:25:20.432Z,85.72
2022-11-11T12:26:51.379Z,85.72
2022-11-11T12:28:07.655Z,85.91
2022-11-11T12:30:40.813Z,83.88
2022-11-11T12:31:51.371Z,83.88
2022-11-11T12:33:19.056Z,83.75
2022-11-11T12:36:15.907Z,82.38
2022-11-11T12:36:51.391Z,82.38
2022-11-11T12:39:02.912Z,81.46
2022-11-11T12:41:57.451Z,81.55
2022-11-11T12:41:57.576Z,81.55
2022-11-11T12:44:33.194Z,81.19
2022-11-11T12:46:51.364Z,81.19
2022-11-11T12:47:26.373Z,80.73
2022-11-11T12:50:08.308Z,81.18
2022-11-11T12:51:51.384Z,23
2022-11-11T12:52:50.472Z,81.15
2022-11-11T12:55:33.717Z,81.37
2022-11-11T12:56:51.376Z,81.37
2022-11-11T12:58:28.205Z,82.33
2022-11-11T13:01:21.307Z,81.25
2022-11-11T13:01:51.394Z,81.25
2022-11-11T13:04:15.576Z,81.98
2022-11-11T13:06:56.504Z,81.13
2022-11-11T13:06:56.750Z,81.13
2022-11-11T13:09:48.562Z,82.15
2022-11-11T13:11:51.371Z,82.15
2022-11-11T13:12:31.006Z,81.08
2022-11-11T13:15:17.124Z,79.46
2022-11-11T13:16:51.408Z,79.46
2022-11-11T13:17:43.757Z,79.55
2022-11-11T13:20:40.454Z,79.00
2022-11-11T13:21:51.381Z,79.00
2022-11-11T13:23:12.554Z,78.76
2022-11-11T13:25:51.926Z,79.25
2022-11-11T13:26:51.411Z,79.25
2022-11-11T13:28:24.847Z,78.22
2022-11-11T13:31:06.660Z,78.46
2022-11-11T13:31:51.387Z,78.46
2022-11-11T13:33:55.602Z,78.60
2022-11-11T13:36:27.002Z,79.19
2022-11-11T13:36:51.458Z,79.19
2022-11-11T13:38:57.137Z,78.74
2022-11-11T13:41:33.062Z,78.58
2022-11-11T13:41:51.380Z,78.58
2022-11-11T13:44:03.111Z,79.33
2022-11-11T13:46:33.322Z,79.77
2022-11-11T13:46:51.396Z,79.77
2022-11-11T13:49:01.611Z,79.65
2022-11-11T13:51:38.917Z,80.20
2022-11-11T13:51:51.392Z,80.20
2022-11-11T13:54:26.373Z,80.68
2022-11-11T13:56:51.372Z,80.68
2022-11-11T13:57:01.084Z,80.09
2022-11-11T13:59:32.555Z,80.99
2022-11-11T14:01:51.451Z,80.99
2022-11-11T14:02:20.528Z,81.04
2022-11-11T14:05:02.289Z,81.10
2022-11-11T14:06:51.457Z,81.10
2022-11-11T14:07:44.088Z,82.15
2022-11-11T14:10:30.345Z,81.27
2022-11-11T14:11:51.392Z,81.27
2022-11-11T14:13:17.750Z,80.92
2022-11-11T14:15:52.599Z,80.80
2022-11-11T14:16:51.389Z,80.80
2022-11-11T14:18:18.939Z,81.09
2022-11-11T14:20:50.230Z,81.22
2022-11-11T14:21:55.731Z,81.22
2022-11-11T14:23:40.614Z,81.36
2022-11-11T14:26:06.899Z,80.54
2022-11-11T14:26:51.482Z,80.54
2022-11-11T14:28:37.716Z,81.30
2022-11-11T14:31:13.070Z,82.33
2022-11-11T14:31:52.984Z,82.33
2022-11-11T14:33:51.989Z,83.33
2022-11-11T14:36:43.702Z,83.11
2022-11-11T14:36:51.390Z,83.11
2022-11-11T14:39:47.702Z,82.76
2022-11-11T14:41:51.409Z,82.76
2022-11-11T14:42:36.052Z,81.91
2022-11-11T14:45:23.101Z,81.94
2022-11-11T14:46:51.379Z,81.94
2022-11-11T14:47:50.915Z,82.07
2022-11-11T14:50:32.477Z,82.47
2022-11-11T14:51:51.413Z,82.47
2022-11-11T14:53:12.918Z,83.10
2022-11-11T14:55:40.397Z,82.62
2022-11-11T14:56:51.394Z,82.62
2022-11-11T14:58:18.640Z,82.88
2022-11-11T15:01:14.359Z,82.78
2022-11-11T15:01:51.473Z,82.78
2022-11-11T15:03:45.058Z,83.36
2022-11-11T15:06:30.653Z,84.13
2022-11-11T15:06:51.451Z,84.13
2022-11-11T15:09:03.187Z,85.29
2022-11-11T15:11:41.181Z,85.72
2022-11-11T15:11:51.392Z,85.72
2022-11-11T15:14:31.808Z,86.76
2022-11-11T15:16:54.588Z,86.76
2022-11-11T15:17:22.306Z,87.29
2022-11-11T15:19:55.404Z,87.17
2022-11-11T15:21:51.396Z,87.17
2022-11-11T15:22:34.046Z,87.66
2022-11-11T15:25:14.805Z,87.67
2022-11-11T15:26:51.391Z,87.67
2022-11-11T15:27:53.001Z,88.67
2022-11-11T15:30:22.883Z,88.73
2022-11-11T15:31:51.422Z,88.73
2022-11-11T15:33:15.262Z,89.81
2022-11-11T15:36:11.451Z,90.03
2022-11-11T15:36:51.405Z,90.03
2022-11-11T15:38:38.911Z,91.11
2022-11-11T15:41:05.606Z,92.37
2022-11-11T15:41:51.396Z,92.37
2022-11-11T15:43:35.019Z,92.42
2022-11-11T15:46:03.774Z,93.31
2022-11-11T15:46:51.384Z,93.31
2022-11-11T15:48:36.730Z,93.40
2022-11-11T15:51:21.643Z,94.46
2022-11-11T15:51:51.386Z,94.46
2022-11-11T15:53:48.934Z,94.99
2022-11-11T15:56:33.190Z,95.31
2022-11-11T15:56:51.396Z,95.31
2022-11-11T15:59:16.601Z,95.68
2022-11-11T16:01:43.314Z,96.88
2022-11-11T16:01:51.467Z,96.88
2022-11-11T16:04:48.560Z,98.53
2022-11-11T16:06:51.460Z,98.53
2022-11-11T16:07:01.585Z,98.97
2022-11-11T16:09:30.604Z,99.26
2022-11-11T16:11:51.431Z,99.26
2022-11-11T16:11:58.189Z,100.00
2022-11-11T16:14:43.814Z,100.00
2022-11-11T16:16:51.396Z,100.00
2022-11-11T16:17:12.886Z,100.00
2022-11-11T16:19:49.064Z,100.00
2022-11-11T16:21:51.415Z,100.00
2022-11-11T16:22:25.490Z,100.00
2022-11-11T16:24:52.949Z,100.00
2022-11-11T16:26:51.390Z,100.00
2022-11-11T16:27:30.674Z,100.00
2022-11-11T16:30:16.443Z,100.00
2022-11-11T16:31:51.423Z,100.00
2022-11-11T16:32:42.891Z,100.00
2022-11-11T16:35:28.350Z,100.00
2022-11-11T16:36:51.405Z,100.00
2022-11-11T16:37:55.429Z,100.00
2022-11-11T16:40:31.090Z,100.00
2022-11-11T16:41:51.448Z,100.00
2022-11-11T16:43:17.672Z,100.00
2022-11-11T16:45:49.617Z,100.00
2022-11-11T16:46:51.393Z,100.00
2022-11-11T16:48:34.143Z,100.00
2022-11-11T16:51:15.808Z,100.00
2022-11-11T16:51:51.443Z,100.00
2022-11-11T16:53:53.397Z,100.00
2022-11-11T16:56:29.020Z,100.00
2022-11-11T16:56:51.399Z,100.00
2022-11-11T16:59:00.590Z,100.00
2022-11-11T17:01:27.527Z,100.00
2022-11-11T17:01:51.494Z,100.00
2022-11-11T17:03:56.960Z,100.00
2022-11-11T17:06:50.639Z,100.00
2022-11-11T17:06:51.468Z,100.00
2022-11-11T17:09:27.489Z,100.00
2022-11-11T17:11:51.400Z,100.00
2022-11-11T17:11:53.916Z,100.00
2022-11-11T17:14:20.213Z,100.00
2022-11-11T17:16:46.596Z,100.00
2022-11-11T17:16:51.401Z,100.00
2022-11-11T17:19:13.017Z,100.00
2022-11-11T17:21:39.453Z,100.00
2022-11-11T17:21:51.396Z,100.00
2022-11-11T17:24:05.826Z,100.00
2022-11-11T17:26:32.574Z,100.00
2022-11-11T17:26:51.433Z,100.00
2022-11-11T17:28:59.043Z,100.00
2022-11-11T17:31:25.435Z,100.00
2022-11-11T17:31:51.412Z,100.00
2022-11-11T17:33:51.886Z,100.00
2022-11-11T17:36:18.368Z,100.00
2022-11-11T17:36:51.442Z,100.00
2022-11-11T17:38:45.224Z,100.00
2022-11-11T17:41:14.469Z,100.00
2022-11-11T17:41:51.434Z,100.00
2022-11-11T17:43:40.833Z,100.00
2022-11-11T17:46:07.210Z,100.00
2022-11-11T17:46:51.435Z,100.00
2022-11-11T17:48:33.704Z,100.00
2022-11-11T17:51:04.266Z,100.00
2022-11-11T17:51:51.468Z,100.00
2022-11-11T17:53:34.270Z,100.00
2022-11-11T17:56:01.749Z,100.00
2022-11-11T17:56:51.459Z,100.00
2022-11-11T17:58:28.110Z,100.00
2022-11-11T18:00:54.619Z,100.00
2022-11-11T18:01:51.441Z,100.00
2022-11-11T18:03:20.983Z,100.00
2022-11-11T18:05:47.333Z,100.00
2022-11-11T18:06:51.440Z,100.00
2022-11-11T18:08:13.720Z,100.00
2022-11-11T18:10:40.069Z,100.00
2022-11-11T18:11:51.426Z,100.00
2022-11-11T18:13:06.376Z,100.00
2022-11-11T18:15:34.317Z,100.00
2022-11-11T18:16:51.448Z,100.00
2022-11-11T18:18:00.761Z,100.00
2022-11-11T18:20:27.065Z,100.00
2022-11-11T18:21:51.448Z,100.00
2022-11-11T18:22:56.989Z,100.00
2022-11-11T18:25:23.830Z,100.00
2022-11-11T18:26:51.449Z,100.00
2022-11-11T18:27:53.788Z,100.00
2022-11-11T18:30:20.541Z,100.00
2022-11-11T18:31:55.942Z,100.00
2022-11-11T18:32:47.087Z,100.00
2022-11-11T18:35:13.491Z,100.00
2022-11-11T18:36:51.437Z,100.00
2022-11-11T18:37:45.260Z,100.00
2022-11-11T18:40:12.922Z,100.00
2022-11-11T18:41:51.434Z,100.00
2022-11-11T18:42:39.287Z,100.00
2022-11-11T18:45:06.425Z,100.00
2022-11-11T18:46:51.444Z,100.00
2022-11-11T18:47:32.792Z,100.00
2022-11-11T18:49:59.135Z,100.00
2022-11-11T18:51:51.624Z,100.00
2022-11-11T18:52:25.814Z,100.00
2022-11-11T18:54:52.133Z,100.00
2022-11-11T18:56:51.451Z,100.00
2022-11-11T18:57:20.881Z,100.00
2022-11-11T18:59:47.310Z,100.00
2022-11-11T19:01:54.700Z,100.00
2022-11-11T19:02:14.037Z,100.00
2022-11-11T19:04:40.477Z,100.00
2022-11-11T19:06:51.483Z,100.00
2022-11-11T19:07:06.897Z,100.00
2022-11-11T19:09:33.611Z,100.00
2022-11-11T19:11:51.435Z,100.00
2022-11-11T19:11:59.959Z,100.00
2022-11-11T19:14:27.267Z,100.00
2022-11-11T19:16:51.457Z,100.00
2022-11-11T19:16:55.119Z,100.00
2022-11-11T19:19:21.480Z,100.00
2022-11-11T19:21:47.946Z,100.00
2022-11-11T19:21:51.437Z,100.00
2022-11-11T19:24:15.366Z,100.00
2022-11-11T19:26:43.659Z,100.00
2022-11-11T19:26:51.450Z,100.00
2022-11-11T19:29:12.036Z,100.00
2022-11-11T19:31:38.443Z,100.00
2022-11-11T19:31:51.447Z,100.00
2022-11-11T19:34:04.810Z,100.00
2022-11-11T19:36:31.220Z,100.00
2022-11-11T19:36:51.433Z,100.00
2022-11-11T19:39:00.054Z,100.00
2022-11-11T19:41:28.222Z,100.00
2022-11-11T19:41:51.443Z,100.00
2022-11-11T19:43:58.476Z,100.00
2022-11-11T19:46:27.000Z,100.00
2022-11-11T19:46:51.481Z,100.00
2022-11-11T19:48:55.400Z,100.00
2022-11-11T19:51:25.438Z,100.00
2022-11-11T19:51:51.447Z,100.00
2022-11-11T19:53:56.255Z,100.00
2022-11-11T19:56:24.680Z,100.00
2022-11-11T19:56:51.475Z,100.00
2022-11-11T19:58:51.048Z,100.00
2022-11-11T20:01:20.529Z,100.00
2022-11-11T20:01:51.493Z,100.00
2022-11-11T20:03:47.479Z,100.00
2022-11-11T20:06:24.261Z,100.00
2022-11-11T20:06:51.535Z,100.00
2022-11-11T20:08:51.193Z,100.00
2022-11-11T20:11:18.221Z,100.00
2022-11-11T20:11:51.448Z,100.00
2022-11-11T20:13:44.685Z,100.00
2022-11-11T20:16:11.002Z,100.00
2022-11-11T20:16:51.479Z,100.00
2022-11-11T20:18:37.348Z,100.00
2022-11-11T20:21:05.852Z,100.00
2022-11-11T20:21:51.458Z,100.00
2022-11-11T20:23:35.938Z,100.00
2022-11-11T20:26:14.466Z,100.00
2022-11-11T20:26:52.650Z,100.00
2022-11-11T20:28:41.230Z,100.00
2022-11-11T20:31:13.332Z,100.00
2022-11-11T20:31:51.447Z,100.00
2022-11-11T20:33:40.183Z,100.00
2022-11-11T20:36:09.658Z,100.00
2022-11-11T20:36:51.461Z,100.00
2022-11-11T20:38:36.684Z,100.00
2022-11-11T20:41:05.480Z,100.00
2022-11-11T20:41:51.439Z,100.00
2022-11-11T20:43:33.290Z,100.00
2022-11-11T20:46:20.287Z,100.00
2022-11-11T20:46:51.443Z,100.00
2022-11-11T20:48:49.100Z,100.00
2022-11-11T20:51:18.193Z,100.00
2022-11-11T20:51:51.447Z,100.00
2022-11-11T20:53:44.656Z,100.00
2022-11-11T20:56:13.708Z,100.00
2022-11-11T20:56:51.453Z,100.00
2022-11-11T20:58:40.717Z,100.00
2022-11-11T21:01:18.357Z,100.00
2022-11-11T21:01:51.496Z,100.00
2022-11-11T21:03:44.944Z,100.00
2022-11-11T21:06:14.278Z,100.00
2022-11-11T21:06:51.557Z,100.00
2022-11-11T21:08:43.095Z,100.00
2022-11-11T21:11:11.183Z,100.00
2022-11-11T21:11:51.447Z,100.00
2022-11-11T21:13:38.397Z,100.00
2022-11-11T21:16:14.292Z,100.00